Main page
METAR-TAF:

METAR-TAF

Airports :

Buenos Aires, Argentina

Aeroparque Jorge Newbery

latitude: 34-34S, longitude: 058-25W, elevation: 6 m

Current weather observation

The report was made 53 minutes ago, at 21:00 UTC
Wind 11 kt from the North/Northwest
Temperature 21°C
Humidity 69%
Pressure 1017 hPa
Visibility 10 km or more
no clouds below 1500 m and no cumulonimbus

METAR: SABE 282100Z 33011KT CAVOK 21/15 Q1017

Time: 18:53 (21:53 UTC)

Forecast

The report was made 4 hours and 53 minutes ago, at 17:00 UTC
Forecast valid from 28 at 18 UTC to 29 at 18 UTC
Wind 10 kt from the Northwest
Visibility 10 km or more
no clouds below 1500 m and no cumulonimbus
Becoming
from 29 at 05 UTC to 29 at 07 UTC
Becoming
from 29 at 15 UTC to 29 at 17 UTC
Wind 10 kt from the North/Northeast

TAF: SABE 281700Z 2818/2918 31010KT CAVOK TX25/2918Z TN14/2909Z BECMG 2905/2907 2900KT BECMG 2915/2917 02010KT

Weather observations and forecasts of more than 4000 airports (METAR and TAF reports).

The available stations are represented by yellow and red dots on the map.

Hover mouse over dot to see the name of the station.

Then click to see weather observations and forecasts.

To change the map : click on the green buttons with a black cross to zoom in, on the green button with a dash to zoom out, or on the green arrows for adjacent maps.


METAR-TAF: